Time;durP1;ratioP1;P1;durP2;ratioP2;P2;SDS_P1;SDS_P2;PMS_P1;PMS_P2;Temp;Humidity;BMP_temperature;BMP_pressure;BME280_temperature;BME280_humidity;BME280_pressure;Samples;Min_cycle;Max_cycle;Signal;HPM_P1;HPM_P2
2020/12/15 00:00:51;;;;;;;159.48;81.32;;;;;;;0.63;76.90;100364.83;2161930;82;28872;-62
2020/12/15 00:03:53;;;;;;;170.80;79.55;;;;;;;0.65;76.92;100360.85;2143413;82;27767;-61
2020/12/15 00:06:55;;;;;;;168.28;74.20;;;;;;;0.65;76.98;100359.53;2142040;83;28884;-61
2020/12/15 00:09:59;;;;;;;160.00;79.00;;;;;;;0.65;76.97;100363.06;2142115;83;31165;-61
2020/12/15 00:13:03;;;;;;;171.10;78.87;;;;;;;0.68;76.92;100355.56;2159737;82;34160;-61
2020/12/15 00:16:05;;;;;;;173.07;80.70;;;;;;;0.71;76.93;100356.40;2164115;82;29795;-60
2020/12/15 00:19:10;;;;;;;167.05;78.45;;;;;;;0.69;76.93;100352.90;2158681;82;27602;-61
2020/12/15 00:22:13;;;;;;;174.63;78.17;;;;;;;0.71;76.97;100356.40;2113058;82;28836;-61
2020/12/15 00:25:15;;;;;;;159.48;78.62;;;;;;;0.66;76.98;100347.67;2164708;82;31682;-61
2020/12/15 00:28:18;;;;;;;171.90;79.75;;;;;;;0.71;77.01;100361.67;2174548;81;32813;-61
2020/12/15 00:31:21;;;;;;;166.50;81.15;;;;;;;0.68;77.02;100369.60;2127888;81;29798;-61
2020/12/15 00:34:25;;;;;;;168.93;76.97;;;;;;;0.68;77.00;100371.38;2147562;82;27618;-61
2020/12/15 00:37:35;;;;;;;157.27;71.35;;;;;;;0.66;77.10;100367.45;2145758;82;28825;-62
2020/12/15 00:40:38;;;;;;;145.55;68.35;;;;;;;0.65;77.14;100367.02;2145075;83;31360;-62
2020/12/15 00:43:41;;;;;;;148.90;71.92;;;;;;;0.66;77.11;100363.50;2177874;81;34031;-64
2020/12/15 00:46:50;;;;;;;146.35;70.87;;;;;;;0.69;77.16;100360.80;2178095;81;28868;-61
2020/12/15 00:49:53;;;;;;;147.13;72.25;;;;;;;0.69;77.19;100361.27;2159166;81;27677;-62
2020/12/15 00:52:58;;;;;;;150.40;73.17;;;;;;;0.73;77.21;100353.77;2160837;81;29802;-62
2020/12/15 00:56:04;;;;;;;144.30;69.32;;;;;;;0.73;77.21;100363.00;2174665;81;31197;-61
2020/12/15 00:59:10;;;;;;;149.68;71.00;;;;;;;0.70;77.26;100361.24;2138007;83;33142;-60
2020/12/15 01:02:13;;;;;;;151.35;72.22;;;;;;;0.68;77.34;100358.20;2115547;83;30457;-63
2020/12/15 01:05:15;;;;;;;144.20;68.50;;;;;;;0.68;77.40;100367.42;2119825;83;27727;-64
2020/12/15 01:08:19;;;;;;;134.37;62.58;;;;;;;0.70;77.45;100371.79;2048878;85;28816;-61
2020/12/15 01:11:30;;;;;;;139.65;66.02;;;;;;;0.72;77.41;100366.06;2071026;83;32202;-61
2020/12/15 01:14:32;;;;;;;130.72;63.25;;;;;;;0.77;77.37;100371.75;2103771;84;33121;-60
2020/12/15 01:17:35;;;;;;;133.67;65.17;;;;;;;0.79;77.42;100376.11;2098894;84;28587;-62
2020/12/15 01:20:38;;;;;;;135.43;65.80;;;;;;;0.82;77.52;100371.28;2102141;84;27598;-62
2020/12/15 01:23:45;;;;;;;136.55;65.67;;;;;;;0.82;77.44;100366.00;2103703;83;28840;-64
2020/12/15 01:26:47;;;;;;;132.22;67.22;;;;;;;0.84;77.46;100365.52;2075974;84;31251;-62
2020/12/15 01:29:50;;;;;;;128.07;61.05;;;;;;;0.83;77.41;100360.70;2101112;84;33254;-62
2020/12/15 01:32:52;;;;;;;121.33;59.90;;;;;;;0.83;77.44;100365.98;2097371;84;29610;-62
2020/12/15 01:35:55;;;;;;;141.05;64.67;;;;;;;0.82;77.39;100372.14;2079901;84;27721;-62
2020/12/15 01:38:58;;;;;;;135.88;64.25;;;;;;;0.83;77.43;100369.94;2095293;85;28767;-62
2020/12/15 01:42:00;;;;;;;99.95;46.28;;;;;;;0.83;77.45;100360.70;2097960;84;31172;-62
2020/12/15 01:45:04;;;;;;;135.68;61.70;;;;;;;0.80;77.62;100364.68;2145397;82;33531;-62
2020/12/15 01:48:07;;;;;;;133.43;64.43;;;;;;;0.78;77.46;100356.36;2145953;82;29150;-66
2020/12/15 01:51:09;;;;;;;132.25;63.87;;;;;;;0.78;77.49;100347.13;2147794;81;27753;-62
2020/12/15 01:54:12;;;;;;;114.50;59.30;;;;;;;0.77;77.61;100341.42;2157495;81;29349;-62
2020/12/15 01:57:14;;;;;;;128.68;62.13;;;;;;;0.74;77.77;100341.87;2148163;82;31202;-62
2020/12/15 02:00:17;;;;;;;130.30;62.17;;;;;;;0.73;77.65;100345.41;2130178;82;33752;-63
2020/12/15 02:03:19;;;;;;;127.20;61.73;;;;;;;0.77;77.69;100337.02;2150791;81;29615;-62
2020/12/15 02:06:23;;;;;;;124.65;61.05;;;;;;;0.78;77.69;100331.31;2138191;83;27652;-66
2020/12/15 02:09:25;;;;;;;113.12;57.30;;;;;;;0.81;77.64;100338.74;2138143;83;29785;-62
2020/12/15 02:12:27;;;;;;;120.37;59.93;;;;;;;0.85;77.66;100343.11;2056096;86;32565;-62
2020/12/15 02:15:30;;;;;;;123.15;59.98;;;;;;;0.89;77.57;100339.56;2109304;84;33846;-63
2020/12/15 02:18:34;;;;;;;122.20;58.13;;;;;;;0.91;77.48;100333.80;2109284;84;29240;-62
2020/12/15 02:22:00;;;;;;;124.33;61.33;;;;;;;0.93;77.50;100332.48;2138050;81;27776;-62
2020/12/15 02:25:08;;;;;;;124.78;62.10;;;;;;;0.92;77.36;100339.97;2145497;81;29778;-62
2020/12/15 02:28:10;;;;;;;119.57;58.13;;;;;;;0.88;77.33;100341.77;2106378;83;31136;-62
2020/12/15 02:31:12;;;;;;;109.70;55.70;;;;;;;0.87;77.36;100340.02;2110689;82;33088;-62
2020/12/15 02:34:16;;;;;;;115.92;57.03;;;;;;;0.85;77.41;100336.52;2156818;82;29162;-62
2020/12/15 02:37:18;;;;;;;114.92;55.48;;;;;;;0.81;77.39;100335.25;2157010;82;27689;-62
2020/12/15 02:40:20;;;;;;;113.45;56.58;;;;;;;0.81;77.36;100339.20;2156936;82;28830;-62
2020/12/15 02:43:22;;;;;;;113.88;56.10;;;;;;;0.81;77.39;100338.74;2137737;82;31242;-62
2020/12/15 02:46:25;;;;;;;120.65;58.30;;;;;;;0.82;77.37;100339.63;2104719;84;33129;-62
2020/12/15 02:49:27;;;;;;;122.05;57.73;;;;;;;0.79;77.38;100332.60;2133126;83;29605;-62
2020/12/15 02:52:29;;;;;;;121.07;60.28;;;;;;;0.79;77.42;100332.60;2147343;82;27714;-61
2020/12/15 02:55:31;;;;;;;117.85;57.78;;;;;;;0.79;77.34;100330.42;2156422;82;28819;-62
2020/12/15 02:58:35;;;;;;;119.35;56.88;;;;;;;0.78;77.27;100333.48;2156691;82;31171;-61
2020/12/15 03:01:44;;;;;;;116.97;56.53;;;;;;;0.77;77.30;100334.38;2152441;82;33091;-62
2020/12/15 03:04:47;;;;;;;127.53;59.30;;;;;;;0.73;77.28;100323.45;2115125;83;28880;-61
2020/12/15 03:07:49;;;;;;;153.60;67.80;;;;;;;0.68;77.30;100310.28;2103391;84;27692;-61
2020/12/15 03:10:51;;;;;;;124.90;55.90;;;;;;;0.64;77.32;100316.49;2104356;84;29273;-62
2020/12/15 03:13:53;;;;;;;117.77;55.40;;;;;;;0.60;77.45;100321.35;2139974;82;29117;-62
2020/12/15 03:16:55;;;;;;;113.03;52.40;;;;;;;0.58;77.47;100321.80;2140285;83;34501;-61
2020/12/15 03:19:58;;;;;;;106.65;52.13;;;;;;;0.60;77.48;100325.30;2149784;82;30497;-62
2020/12/15 03:23:00;;;;;;;98.42;51.37;;;;;;;0.59;77.64;100336.28;2130476;82;27641;-62
2020/12/15 03:26:02;;;;;;;110.97;56.23;;;;;;;0.58;77.72;100323.98;2104508;84;28864;-63
2020/12/15 03:29:04;;;;;;;108.92;54.83;;;;;;;0.60;77.79;100325.30;2127438;81;31608;-62
2020/12/15 03:32:08;;;;;;;106.58;55.83;;;;;;;0.62;77.76;100328.81;2164059;81;33560;-63
2020/12/15 03:35:10;;;;;;;105.27;51.15;;;;;;;0.62;77.81;100333.19;2149138;82;29201;-66
2020/12/15 03:38:12;;;;;;;91.00;44.77;;;;;;;0.57;77.95;100330.17;2120255;82;27771;-63
2020/12/15 03:41:15;;;;;;;109.97;50.73;;;;;;;0.55;78.09;100332.37;2177358;81;29276;-63
2020/12/15 03:44:17;;;;;;;107.32;54.15;;;;;;;0.57;77.93;100335.87;2179817;81;32111;-63
2020/12/15 03:47:19;;;;;;;98.90;50.50;;;;;;;0.60;77.97;100332.75;2186580;81;33105;-62
2020/12/15 03:50:21;;;;;;;103.67;53.38;;;;;;;0.64;77.98;100332.73;2158516;81;29160;-63
2020/12/15 03:53:23;;;;;;;108.00;53.00;;;;;;;0.66;77.98;100327.91;2115601;83;27666;-63
2020/12/15 03:56:25;;;;;;;111.57;56.90;;;;;;;0.70;77.96;100325.65;2109173;84;29266;-63
2020/12/15 03:59:27;;;;;;;152.57;68.02;;;;;;;0.71;77.96;100324.77;2132250;81;31028;-62
2020/12/15 04:02:31;;;;;;;118.93;57.10;;;;;;;0.71;77.87;100323.44;2162687;81;33167;-62
2020/12/15 04:05:34;;;;;;;105.58;53.02;;;;;;;0.72;77.90;100321.70;2167968;82;28940;-63
2020/12/15 04:08:36;;;;;;;109.07;50.50;;;;;;;0.71;77.96;100322.13;2154726;81;27739;-62
2020/12/15 04:11:39;;;;;;;104.38;49.90;;;;;;;0.67;77.98;100323.03;2145806;83;29010;-64
2020/12/15 04:14:42;;;;;;;105.35;50.15;;;;;;;0.67;77.93;100324.81;2145772;83;31330;-63
2020/12/15 04:17:45;;;;;;;108.67;52.90;;;;;;;0.68;77.90;100327.42;2155643;82;33531;-66
2020/12/15 04:20:47;;;;;;;103.42;52.40;;;;;;;0.69;77.96;100321.72;2138685;81;29629;-63
2020/12/15 04:23:49;;;;;;;108.15;51.30;;;;;;;0.70;77.90;100316.42;2108948;84;27652;-63
2020/12/15 04:26:52;;;;;;;103.80;49.73;;;;;;;0.72;77.94;100313.78;2118027;81;28987;-64
2020/12/15 04:29:54;;;;;;;98.42;49.00;;;;;;;0.71;77.91;100306.77;2153969;81;31575;-66
2020/12/15 04:32:56;;;;;;;104.55;49.48;;;;;;;0.70;77.97;100305.02;2173931;81;33109;-64
2020/12/15 04:35:58;;;;;;;94.13;44.08;;;;;;;0.63;78.00;100309.47;2163927;81;29675;-67
2020/12/15 04:39:00;;;;;;;94.92;45.40;;;;;;;0.58;78.16;100302.89;2149981;82;27645;-67
2020/12/15 04:42:03;;;;;;;97.97;45.48;;;;;;;0.52;78.15;100300.33;2149857;82;28823;-62
2020/12/15 04:45:05;;;;;;;91.78;43.87;;;;;;;0.51;78.20;100301.21;2149735;82;32491;-63
2020/12/15 04:48:09;;;;;;;95.25;47.27;;;;;;;0.47;78.28;100298.16;2149642;82;33064;-67
2020/12/15 04:51:13;;;;;;;97.92;46.90;;;;;;;0.44;78.31;100295.13;2149896;82;30086;-63
2020/12/15 04:54:16;;;;;;;96.55;46.40;;;;;;;0.42;78.45;100296.89;2149912;82;27694;-63
2020/12/15 04:57:23;;;;;;;83.10;42.33;;;;;;;0.42;78.47;100290.30;2149885;82;28814;-63
2020/12/15 05:00:25;;;;;;;86.55;43.30;;;;;;;0.42;78.56;100304.80;2114102;82;31134;-62
2020/12/15 05:03:30;;;;;;;81.57;40.30;;;;;;;0.42;78.52;100311.81;2112260;84;33542;-67
2020/12/15 05:06:33;;;;;;;58.80;30.62;;;;;;;0.40;78.66;100301.30;2113185;84;31481;-63
2020/12/15 05:09:37;;;;;;;79.27;38.63;;;;;;;0.38;78.54;100309.66;2113612;84;27702;-64
2020/12/15 05:12:42;;;;;;;71.90;37.60;;;;;;;0.40;78.53;100297.34;2113466;84;29907;-67
2020/12/15 05:15:44;;;;;;;74.03;38.30;;;;;;;0.43;78.54;100299.95;2113543;82;31299;-63
2020/12/15 05:18:46;;;;;;;63.75;33.60;;;;;;;0.43;78.69;100296.01;2113458;84;34037;-63
2020/12/15 05:21:56;;;;;;;79.35;39.98;;;;;;;0.43;79.18;100292.05;2113299;84;29628;-65
2020/12/15 05:24:58;;;;;;;69.27;36.68;;;;;;;0.40;78.87;100293.39;2112375;82;27805;-63
2020/12/15 05:28:11;;;;;;;69.77;33.80;;;;;;;0.40;78.94;100291.22;2112914;83;28830;-65
2020/12/15 05:31:16;;;;;;;68.67;35.90;;;;;;;0.40;79.13;100293.84;2122974;83;32411;-63
2020/12/15 05:34:27;;;;;;;58.85;32.67;;;;;;;0.37;79.08;100280.23;2130370;83;33588;-62
2020/12/15 05:37:29;;;;;;;69.45;34.98;;;;;;;0.38;79.10;100292.52;2137157;83;29182;-63
2020/12/15 05:40:33;;;;;;;71.17;36.38;;;;;;;0.38;79.03;100291.20;2138036;83;27745;-64
2020/12/15 05:43:38;;;;;;;72.53;35.90;;;;;;;0.41;79.01;100279.79;2138137;83;28819;-63
2020/12/15 05:46:46;;;;;;;65.78;33.92;;;;;;;0.42;79.01;100282.40;2134667;82;31772;-62
2020/12/15 05:49:49;;;;;;;56.92;29.92;;;;;;;0.44;79.08;100279.73;2110889;83;33656;-63
2020/12/15 05:53:01;;;;;;;58.15;31.87;;;;;;;0.42;79.20;100275.81;2137863;83;29709;-63
2020/12/15 05:56:05;;;;;;;56.23;26.80;;;;;;;0.42;79.12;100280.19;2138063;83;27742;-62
2020/12/15 05:59:20;;;;;;;52.80;27.67;;;;;;;0.42;79.16;100281.51;2135424;83;28021;-63
2020/12/15 06:02:22;;;;;;;55.05;27.35;;;;;;;0.40;79.11;100288.12;2124552;83;30952;-63
2020/12/15 06:05:36;;;;;;;48.38;25.90;;;;;;;0.38;79.19;100284.62;2130131;83;33120;-63
2020/12/15 06:08:40;;;;;;;46.02;25.60;;;;;;;0.38;79.23;100294.30;2134775;83;30036;-61
2020/12/15 06:11:45;;;;;;;50.52;25.70;;;;;;;0.39;79.15;100302.18;2138138;83;27672;-61
2020/12/15 06:14:49;;;;;;;;;;;;;;;0.45;79.20;100306.09;2140786;83;30130;-61
2020/12/15 06:17:56;;;;;;;40.80;21.30;;;;;;;0.48;79.19;100309.14;2104409;84;31236;-62
2020/12/15 06:20:59;;;;;;;44.73;21.95;;;;;;;0.49;79.24;100301.67;2104674;84;33976;-62
2020/12/15 06:24:04;;;;;;;39.55;22.67;;;;;;;0.48;79.17;100299.91;2133321;83;28976;-61
2020/12/15 06:27:11;;;;;;;40.95;22.48;;;;;;;0.47;79.21;100298.63;2136290;83;27758;-66
2020/12/15 06:30:16;;;;;;;37.55;20.35;;;;;;;0.45;79.13;100292.92;2107687;83;28830;-63
2020/12/15 06:33:18;;;;;;;41.75;22.70;;;;;;;0.47;79.13;100297.30;2126257;81;31943;-64
2020/12/15 06:36:30;;;;;;;39.73;19.95;;;;;;;0.45;79.07;100304.78;2182933;81;33131;-66
2020/12/15 06:39:33;;;;;;;36.55;20.02;;;;;;;0.45;79.08;100299.51;2180723;81;29229;-62
2020/12/15 06:42:37;;;;;;;36.83;19.55;;;;;;;0.45;79.08;100306.09;2182955;81;27706;-66
2020/12/15 06:45:39;;;;;;;34.60;19.65;;;;;;;0.45;79.04;100294.66;2155762;81;28828;-65
2020/12/15 06:48:45;;;;;;;51.73;28.05;;;;;;;0.46;79.16;100303.00;2144303;83;31017;-61
2020/12/15 06:51:53;;;;;;;43.35;23.92;;;;;;;0.47;79.09;100309.17;2082698;84;33979;-61
2020/12/15 06:54:59;;;;;;;44.48;23.35;;;;;;;0.45;79.17;100306.09;2109171;83;29166;-62
2020/12/15 06:58:06;;;;;;;106.67;46.10;;;;;;;0.43;79.21;100305.66;2109460;84;27677;-62
2020/12/15 07:01:20;;;;;;;65.35;30.88;;;;;;;0.42;79.37;100305.22;2109131;84;28807;-65
2020/12/15 07:04:22;;;;;;;45.80;21.37;;;;;;;0.40;79.27;100304.39;2108731;84;31196;-64
2020/12/15 07:07:25;;;;;;;42.35;21.60;;;;;;;0.39;79.42;100306.13;2109188;84;33749;-62
2020/12/15 07:10:29;;;;;;;135.18;55.45;;;;;;;0.42;79.39;100310.49;2121806;82;30504;-65
2020/12/15 07:13:32;;;;;;;56.15;28.83;;;;;;;0.44;79.40;100310.94;2145484;82;27758;-65
2020/12/15 07:16:35;;;;;;;42.13;21.70;;;;;;;0.48;79.35;100309.59;2145649;83;28928;-63
2020/12/15 07:19:38;;;;;;;39.88;21.62;;;;;;;0.51;79.34;100314.82;2145196;83;32623;-65
2020/12/15 07:22:41;;;;;;;56.00;28.47;;;;;;;0.52;79.47;100304.70;2145528;83;33123;-64
2020/12/15 07:25:47;;;;;;;37.38;21.07;;;;;;;0.54;79.46;100304.26;2145203;83;29163;-63
2020/12/15 07:28:49;;;;;;;;;;;;;;;0.54;79.54;100305.15;2150088;82;27741;-61
2020/12/15 07:31:51;;;;;;;56.30;26.73;;;;;;;0.58;79.40;100311.26;2149092;82;28892;-61
2020/12/15 07:35:08;;;;;;;58.17;31.12;;;;;;;0.59;79.50;100303.78;2149178;82;31611;-63
2020/12/15 07:38:12;;;;;;;50.90;26.97;;;;;;;0.62;79.45;100309.04;2149078;82;33122;-61
2020/12/15 07:41:16;;;;;;;51.45;30.45;;;;;;;0.72;79.57;100312.01;2148953;82;30044;-61
2020/12/15 07:44:19;;;;;;;52.95;31.07;;;;;;;0.82;79.45;100314.13;2149122;82;27753;-60
2020/12/15 07:47:22;;;;;;;47.43;25.45;;;;;;;0.94;79.46;100312.25;2149083;82;28822;-60
2020/12/15 07:50:32;;;;;;;44.63;24.43;;;;;;;1.05;79.35;100314.35;2149047;82;31991;-61
2020/12/15 07:53:35;;;;;;;34.25;19.12;;;;;;;1.15;79.33;100312.50;2147301;82;33071;-62
2020/12/15 07:56:38;;;;;;;40.17;22.40;;;;;;;1.26;79.23;100319.84;2145496;83;29213;-61
2020/12/15 07:59:42;;;;;;;43.83;23.87;;;;;;;1.36;79.14;100318.83;2146470;81;27594;-61
2020/12/15 08:02:46;;;;;;;37.03;20.00;;;;;;;1.48;79.06;100322.24;2186636;81;28800;-61
2020/12/15 08:05:48;;;;;;;35.52;20.12;;;;;;;1.58;78.98;100317.27;2185671;81;31158;-63
2020/12/15 08:08:52;;;;;;;35.70;21.75;;;;;;;1.67;78.78;100328.16;2159046;81;33251;-62
2020/12/15 08:11:56;;;;;;;36.60;19.87;;;;;;;1.79;78.79;100331.95;2186630;81;29164;-61
2020/12/15 08:14:59;;;;;;;38.90;23.73;;;;;;;1.92;78.68;100328.72;2186833;81;27691;-61
2020/12/15 08:18:08;;;;;;;26.35;15.25;;;;;;;2.04;78.75;100330.32;2137310;81;28828;-63
2020/12/15 08:21:16;;;;;;;39.33;21.10;;;;;;;2.18;78.41;100323.50;2142977;82;31158;-64
2020/12/15 08:24:22;;;;;;;41.25;22.95;;;;;;;2.27;78.37;100322.05;2146771;82;33134;-63
2020/12/15 08:27:25;;;;;;;36.40;21.82;;;;;;;2.42;78.43;100320.92;2149115;82;29173;-63
2020/12/15 08:30:28;;;;;;;37.98;20.32;;;;;;;2.55;78.10;100319.43;2148529;82;28104;-63
2020/12/15 08:33:31;;;;;;;46.20;23.42;;;;;;;2.68;77.98;100320.08;2118742;83;28816;-66
2020/12/15 08:36:41;;;;;;;44.10;25.17;;;;;;;2.81;78.02;100323.39;2144690;83;31140;-62
2020/12/15 08:39:45;;;;;;;39.60;23.65;;;;;;;2.97;78.21;100321.37;2144487;83;34449;-67
2020/12/15 08:42:48;;;;;;;42.48;24.92;;;;;;;3.08;77.76;100327.77;2145171;83;29168;-63
2020/12/15 08:45:51;;;;;;;44.30;25.30;;;;;;;3.17;77.34;100332.91;2144919;83;27748;-60
2020/12/15 08:48:54;;;;;;;40.30;27.22;;;;;;;3.27;77.20;100337.58;2147647;82;29692;-70
2020/12/15 08:51:56;;;;;;;45.83;28.80;;;;;;;3.32;77.24;100337.02;2148753;82;31261;-63
2020/12/15 08:54:59;;;;;;;45.63;28.40;;;;;;;3.40;77.36;100340.84;2147845;82;33106;-59
2020/12/15 08:58:03;;;;;;;54.00;28.83;;;;;;;3.48;77.22;100339.79;2109133;84;29165;-63
2020/12/15 09:01:05;;;;;;;36.10;21.90;;;;;;;3.55;77.10;100340.56;2109182;84;27713;-60
2020/12/15 09:04:10;;;;;;;44.98;24.75;;;;;;;3.63;77.20;100333.80;2109078;84;28513;-61
2020/12/15 09:07:14;;;;;;;41.73;24.00;;;;;;;3.69;76.70;100328.81;2108688;84;32127;-60
2020/12/15 09:10:17;;;;;;;39.23;20.63;;;;;;;3.78;76.17;100326.84;2141737;82;33171;-61
2020/12/15 09:13:20;;;;;;;44.08;24.50;;;;;;;3.85;76.08;100318.75;2122883;82;30124;-62
2020/12/15 09:16:37;;;;;;;36.30;21.48;;;;;;;3.91;76.43;100308.88;2093040;84;27739;-65
2020/12/15 09:19:42;;;;;;;39.98;22.42;;;;;;;4.02;76.13;100311.30;2082087;85;28839;-60
2020/12/15 09:22:44;;;;;;;;;;;;;;;4.12;75.93;100308.45;2111868;84;32110;-62
2020/12/15 09:25:47;;;;;;;41.98;22.13;;;;;;;4.21;75.99;100302.92;2109297;84;33126;-61
2020/12/15 09:28:51;;;;;;;67.17;37.55;;;;;;;4.31;76.34;100300.93;2108665;84;29080;-61
2020/12/15 09:31:59;;;;;;;45.43;25.37;;;;;;;4.41;76.05;100291.39;2092702;84;27649;-61
2020/12/15 09:35:01;;;;;;;56.92;33.95;;;;;;;4.52;75.85;100298.20;2090842;85;28861;-61
2020/12/15 09:38:04;;;;;;;48.33;28.25;;;;;;;4.66;75.89;100297.41;2091522;83;32065;-61
2020/12/15 09:41:07;;;;;;;43.30;23.83;;;;;;;4.77;75.75;100298.46;2090686;85;33997;-62
2020/12/15 09:44:10;;;;;;;35.43;20.90;;;;;;;4.88;75.60;100301.31;2090692;85;29217;-61
2020/12/15 09:47:13;;;;;;;43.98;28.67;;;;;;;4.97;75.09;100291.30;2090482;85;27670;-61
2020/12/15 09:50:15;;;;;;;40.17;22.80;;;;;;;5.07;75.39;100292.39;2090755;85;28838;-64
2020/12/15 09:53:18;;;;;;;38.65;23.50;;;;;;;5.16;75.23;100299.66;2067199;85;32162;-61
2020/12/15 09:56:21;;;;;;;40.00;20.85;;;;;;;5.25;75.15;100291.89;2090809;85;33942;-62
2020/12/15 09:59:24;;;;;;;43.08;24.37;;;;;;;5.31;74.69;100290.38;2102598;83;31417;-61
2020/12/15 10:02:27;;;;;;;39.98;21.10;;;;;;;5.33;74.70;100289.88;2111269;84;27608;-60
2020/12/15 10:05:29;;;;;;;38.83;22.17;;;;;;;5.37;74.45;100292.45;2111571;83;28828;-60
2020/12/15 10:08:32;;;;;;;39.18;24.77;;;;;;;5.37;74.48;100293.78;2111509;84;31680;-61
2020/12/15 10:11:34;;;;;;;48.28;26.50;;;;;;;5.40;74.38;100306.98;2111485;84;33277;-65
2020/12/15 10:14:37;;;;;;;83.87;45.67;;;;;;;5.41;74.32;100296.30;2111554;84;29971;-61
2020/12/15 10:17:41;;;;;;;59.20;31.12;;;;;;;5.44;74.38;100292.23;2110974;83;27764;-63
2020/12/15 10:20:44;;;;;;;39.88;23.47;;;;;;;5.48;74.43;100291.23;2111627;84;29700;-65
2020/12/15 10:23:49;;;;;;;41.30;20.62;;;;;;;5.54;74.12;100297.30;2092940;83;31144;-61
2020/12/15 10:26:55;;;;;;;39.15;20.65;;;;;;;5.59;73.97;100291.37;2090724;85;34506;-66
2020/12/15 10:29:57;;;;;;;36.98;19.10;;;;;;;5.64;73.88;100272.19;2072687;84;29138;-61
2020/12/15 10:33:00;;;;;;;31.25;18.10;;;;;;;5.73;73.67;100271.05;2102353;84;27600;-62
2020/12/15 10:36:03;;;;;;;33.48;18.48;;;;;;;5.81;73.84;100275.66;2101908;84;28826;-61
2020/12/15 10:39:06;;;;;;;63.25;36.90;;;;;;;5.92;73.76;100268.69;2104915;83;31151;-65
2020/12/15 10:42:10;;;;;;;148.30;88.03;;;;;;;5.99;73.23;100269.36;2138113;83;33134;-62
2020/12/15 10:45:13;;;;;;;117.30;68.78;;;;;;;6.01;73.11;100275.53;2115823;83;29159;-62
2020/12/15 10:48:16;;;;;;;64.97;40.17;;;;;;;6.04;72.91;100274.12;2109279;84;27715;-63
2020/12/15 10:51:19;;;;;;;45.20;29.63;;;;;;;6.02;72.53;100286.14;2141097;82;28826;-62
2020/12/15 10:54:22;;;;;;;42.78;27.65;;;;;;;6.02;72.55;100282.59;2148834;82;32009;-63
2020/12/15 10:57:25;;;;;;;34.60;21.97;;;;;;;6.02;72.56;100277.28;2149016;82;33970;-62
2020/12/15 11:00:27;;;;;;;30.15;18.55;;;;;;;6.00;72.52;100282.66;2147826;82;28866;-62
2020/12/15 11:03:30;;;;;;;30.95;18.12;;;;;;;6.00;72.32;100277.78;2128085;82;27770;-62
2020/12/15 11:06:36;;;;;;;34.65;20.23;;;;;;;6.01;72.46;100276.42;2109273;84;28832;-62
2020/12/15 11:22:55;;;;;;;30.68;17.30;;;;;;;6.07;71.54;100264.72;2131414;82;29321;-65
2020/12/15 11:25:57;;;;;;;25.40;16.77;;;;;;;6.00;71.18;100261.38;2145424;83;31150;-63
2020/12/15 11:29:00;;;;;;;30.40;18.85;;;;;;;5.95;71.12;100262.42;2145054;83;33061;-62
2020/12/15 11:32:03;;;;;;;32.03;19.05;;;;;;;5.91;71.67;100265.17;2132455;82;29188;-63
2020/12/15 11:35:08;;;;;;;29.05;19.10;;;;;;;5.90;71.59;100260.77;2126161;83;27706;-63
2020/12/15 11:38:11;;;;;;;33.80;19.73;;;;;;;5.92;71.62;100262.92;2102765;83;28682;-62
2020/12/15 11:41:14;;;;;;;36.23;21.70;;;;;;;5.93;71.51;100258.46;2090726;85;31169;-66
2020/12/15 11:44:19;;;;;;;39.48;22.48;;;;;;;5.95;71.42;100259.77;2090561;85;28119;-62
2020/12/15 11:47:23;;;;;;;38.67;22.98;;;;;;;5.95;71.34;100259.29;2090679;85;29170;-63
2020/12/15 11:50:30;;;;;;;36.03;22.17;;;;;;;5.99;71.44;100255.62;2100611;84;27765;-63
2020/12/15 11:53:35;;;;;;;33.80;19.73;;;;;;;6.06;71.21;100260.31;2070904;85;27732;-62
2020/12/15 11:56:37;;;;;;;31.33;19.25;;;;;;;6.10;70.85;100253.10;2089955;85;30962;-62
2020/12/15 11:59:41;;;;;;;38.35;22.75;;;;;;;6.13;70.70;100245.03;2090657;85;33988;-62
2020/12/15 12:02:44;;;;;;;44.10;24.40;;;;;;;6.13;70.63;100242.38;2090574;85;29151;-63
2020/12/15 12:05:47;;;;;;;41.90;23.55;;;;;;;6.13;70.92;100250.35;2090816;85;27687;-65
2020/12/15 12:08:49;;;;;;;43.75;24.18;;;;;;;6.17;70.74;100244.88;2090676;85;29267;-63
2020/12/15 12:11:51;;;;;;;39.75;21.68;;;;;;;6.26;70.51;100233.55;2090695;85;31089;-62
2020/12/15 12:14:56;;;;;;;42.10;24.10;;;;;;;6.28;70.01;100237.03;2090660;85;33189;-62
2020/12/15 12:17:59;;;;;;;42.07;25.67;;;;;;;6.27;70.11;100238.80;2090783;85;30100;-63
2020/12/15 12:21:02;;;;;;;43.30;24.72;;;;;;;6.09;70.44;100201.72;2094147;83;27724;-62
2020/12/15 12:24:05;;;;;;;37.35;23.00;;;;;;;6.33;70.33;100235.06;2090498;85;29733;-62
2020/12/15 12:30:24;;;;;;;41.23;23.50;;;;;;;6.28;69.59;100227.72;2345536;74;27669;-61
2020/12/15 12:33:26;;;;;;;34.90;18.73;;;;;;;6.14;69.76;100234.80;2304510;77;27947;-61
2020/12/15 12:36:34;;;;;;;41.08;21.95;;;;;;;6.04;69.71;100232.90;2282181;77;28777;-60
2020/12/15 12:39:39;;;;;;;46.63;26.15;;;;;;;5.97;69.82;100225.98;2262721;78;32100;-61
2020/12/15 12:42:45;;;;;;;42.62;25.35;;;;;;;5.93;69.99;100234.53;2262697;78;33083;-61
2020/12/15 12:45:49;;;;;;;42.45;25.32;;;;;;;5.88;69.79;100220.06;2262776;78;28474;-61
2020/12/15 12:48:52;;;;;;;43.83;28.00;;;;;;;5.83;69.82;100226.44;2262835;78;27861;-62
2020/12/15 12:51:57;;;;;;;43.25;25.45;;;;;;;5.85;70.37;100237.43;2262813;78;28833;-61
2020/12/15 12:55:00;;;;;;;48.78;27.25;;;;;;;5.90;70.30;100249.24;2292105;77;31185;-61
2020/12/15 12:58:02;;;;;;;43.15;24.82;;;;;;;5.95;70.40;100239.34;2303601;77;33091;-61
2020/12/15 13:01:06;;;;;;;39.45;22.73;;;;;;;6.01;70.14;100239.64;2304363;77;29056;-63
2020/12/15 13:04:12;;;;;;;43.30;25.10;;;;;;;6.04;70.13;100234.23;2304585;77;27708;-61
2020/12/15 13:07:15;;;;;;;42.93;24.05;;;;;;;6.05;69.98;100224.86;2304398;77;29750;-61
2020/12/15 13:10:20;;;;;;;45.25;25.15;;;;;;;6.08;69.97;100220.77;2304337;77;30823;-61
2020/12/15 13:13:26;;;;;;;57.17;34.53;;;;;;;6.12;69.93;100217.58;2304318;77;33108;-61
2020/12/15 13:16:29;;;;;;;54.63;27.70;;;;;;;6.13;69.82;100217.95;2304266;77;29800;-60
2020/12/15 13:19:32;;;;;;;61.33;36.63;;;;;;;6.16;70.00;100225.84;2296043;77;27721;-60
2020/12/15 13:22:35;;;;;;;61.50;37.80;;;;;;;6.15;69.77;100226.77;2282110;77;28873;-60
2020/12/15 13:25:39;;;;;;;49.27;27.15;;;;;;;6.15;69.99;100227.23;2303784;77;32516;-61
2020/12/15 13:28:42;;;;;;;61.77;37.38;;;;;;;6.14;69.93;100214.86;2304227;76;33805;-61
2020/12/15 13:31:48;;;;;;;45.80;28.70;;;;;;;6.12;69.86;100239.30;2303764;77;29788;-61
2020/12/15 13:34:50;;;;;;;57.33;34.90;;;;;;;6.09;69.95;100234.96;2304543;77;27646;-62
2020/12/15 13:37:53;;;;;;;37.63;22.13;;;;;;;6.06;69.96;100249.20;2304286;77;28801;-61
2020/12/15 13:40:58;;;;;;;50.58;30.80;;;;;;;6.06;69.67;100243.03;2265935;77;31120;-61
2020/12/15 13:44:00;;;;;;;;;;;;;;;6.03;69.91;100249.33;2219389;80;33183;-61
2020/12/15 13:47:04;;;;;;;38.80;23.30;;;;;;;6.04;69.86;100256.36;2190522;81;28930;-62
2020/12/15 13:50:07;;;;;;;37.20;19.07;;;;;;;6.01;69.81;100258.25;2265823;78;28091;-61
2020/12/15 13:53:09;;;;;;;147.10;79.30;;;;;;;5.99;69.34;100259.61;2265763;77;29696;-61
2020/12/15 13:56:12;;;;;;;42.67;20.57;;;;;;;5.98;69.81;100252.99;2265928;77;32061;-61
2020/12/15 13:59:15;;;;;;;34.05;19.10;;;;;;;5.98;69.39;100247.23;2265685;78;34332;-61
2020/12/15 14:02:20;;;;;;;41.37;24.70;;;;;;;5.99;69.33;100250.30;2265574;78;29693;-61
2020/12/15 14:05:22;;;;;;;30.93;18.43;;;;;;;6.00;69.33;100248.53;2266265;78;27710;-61
2020/12/15 14:08:25;;;;;;;44.30;23.35;;;;;;;5.99;69.27;100252.96;2297666;77;28777;-61
2020/12/15 14:11:28;;;;;;;39.83;20.23;;;;;;;6.00;69.22;100243.22;2306940;77;31124;-62
2020/12/15 14:14:30;;;;;;;31.73;18.23;;;;;;;5.99;69.28;100252.08;2307678;77;33224;-61
2020/12/15 14:17:33;;;;;;;30.52;18.75;;;;;;;5.97;69.14;100263.22;2307411;77;28837;-61
2020/12/15 14:20:37;;;;;;;30.90;17.57;;;;;;;5.95;69.15;100263.27;2283356;77;27658;-61